x

Nanakwa Shoal (46181) Weather Station

7:00am - Tue 26th Jul 2016 All times are PDT. -7 hours from GMT.

  • Peak Period 2s
  • Wind
    7mph, 9mph gusts
  • Sea Temp 62°f
  • Air Temp 59°f
  • Sea Pressure 1021.8mb
  • Nanakwa Shoal
  • Nanakwa Shoal

More Historic Weather Station data

Upgrade to MSW Pro to gain access to the past 30 days of data for over 8000 Wavebouys and Weather Stations around the globe.

Join Pro

Comparision Forecast

View Surf forecast
   
Tue 07/26 7:00am  -  2s 7 9 mph 1021.8mb 62f 59f
6:00am 0.3ft 2s 4 9 mph 1021.8mb 62f 58f
5:00am 0.3ft 2s 4
mph
1021.5mb 62f 58f
4:00am 0.3ft 2s 7 9 mph 1021.3mb 63f 59f
3:00am 0.3ft 2s 9 11 mph 1021.1mb 63f 60f
2:00am 0.3ft 2s 7 9 mph 1021mb 63f 61f
1:00am 0.3ft 2s 9 11 mph 1020.8mb 63f 62f
12:00am 0.3ft 2s 9 13 mph 1020.7mb 63f 62f
Mon 07/25 11:00pm 0.7ft 2s 13 16 mph 1020.4mb 63f 63f
10:00pm 0.7ft 2s 13 16 mph 1020.1mb 64f 64f
9:00pm 0.7ft 3s 11 13 mph 1019.7mb 64f 65f
8:00pm 0.7ft 2s 13 16 mph 1019.4mb 64f 66f
7:00pm 0.7ft 2s 13 16 mph 1019.3mb 64f 68f
6:00pm 0.7ft 2s 13 16 mph 1019.1mb 64f 67f
5:00pm 0.7ft 2s 16 18 mph 1019.4mb 65f 67f
4:00pm 0.7ft 2s 13 16 mph 1019.6mb 65f 66f
3:00pm 0.7ft 2s 13 18 mph 1020mb 65f 66f
2:00pm 0.3ft 2s 16 18 mph 1020mb 65f 65f
1:00pm 0.3ft 2s 11 13 mph 1020.3mb 64f 64f
12:00pm 0.3ft 2s 9 13 mph 1020.7mb 63f 62f
11:00am 0.3ft 2s 9 11 mph 1020.9mb 62f 61f
10:00am 0.3ft 2s 11
mph
1020.7mb 62f 60f
9:00am 0.3ft 2s 9 11 mph 1020.6mb 62f 60f
8:00am 0.3ft 2s 7 9 mph 1020.4mb 62f 59f
7:00am 0.3ft 2s 7
mph
1020.2mb 62f 59f
6:00am 0.3ft 2s 7 9 mph 1020.1mb 62f 59f
5:00am 0.3ft 2s 9 11 mph 1020mb 61f 59f
4:00am 0.3ft 2s 11 13 mph 1019.9mb 61f 59f
3:00am 0.3ft 2s 13
mph
1019.9mb 61f 60f
2:00am 0.3ft 2s 13 16 mph 1019.9mb 61f 60f
1:00am 0.3ft 2s 11 13 mph 1020mb 61f 60f
12:00am 0.7ft 2s 11 13 mph 1020mb 62f 61f
Sun 07/24 11:00pm 0.7ft 2s 13 18 mph 1019.8mb 62f 62f
10:00pm 0.7ft 2s 13 18 mph 1019.7mb 62f 62f
9:00pm 0.7ft 2s 13 18 mph 1019.3mb 62f 62f
8:00pm 0.7ft 2s 16 22 mph 1018.9mb 63f 64f
7:00pm 0.7ft 2s 16 18 mph 1018.6mb 63f 64f
6:00pm 0.7ft 2s 16 18 mph 1018.6mb 63f 64f
5:00pm 0.7ft 2s 9 13 mph 1018.7mb 63f 64f
4:00pm 0.7ft 2s 13 16 mph 1018.7mb 63f 64f
3:00pm 0.7ft 2s 16 20 mph 1018.8mb 63f 64f
2:00pm 0.7ft 2s 13 18 mph 1019mb 63f 64f
1:00pm 0.3ft 2s 13 18 mph 1019.2mb 62f 63f
12:00pm 0.3ft 2s 11 13 mph 1019.2mb 62f 62f
11:00am 0.7ft 2s 11 16 mph 1019.1mb 62f 61f
10:00am 0.7ft 2s 13 18 mph 1018.7mb 61f 60f
9:00am 0.7ft 2s 13 18 mph 1018.5mb 61f 60f
8:00am 0.7ft 2s 16 18 mph 1017.8mb 61f 60f
7:00am 0.7ft 2s 16 20 mph 1017.3mb 61f 59f
6:00am 0.7ft 2s 16 18 mph 1016.9mb 61f 59f
5:00am 0.7ft 2s 11 13 mph 1016.6mb 61f 59f
4:00am 0.7ft 3s 16 18 mph 1016.9mb 61f 59f
3:00am 0.7ft 2s 18 22 mph 1017.1mb 61f 59f
2:00am 1ft 3s 16 20 mph 1017.6mb 61f 60f
1:00am 0.7ft 3s 20 25 mph 1017.9mb 61f 60f
12:00am 0.7ft 2s 20 25 mph 1018mb 61f 59f
Sat 07/23 11:00pm 0.7ft 2s 13 18 mph 1018.2mb 61f 60f
10:00pm 0.7ft 2s 18 20 mph 1018.5mb 61f 59f
9:00pm 1ft 3s 18 22 mph 1018.6mb 61f 60f
8:00pm 1ft 3s 20 25 mph 1018.8mb 61f 59f
7:00pm 0.7ft 3s 16 20 mph 1019.3mb 61f 60f
6:00pm 0.7ft 2s 16 20 mph 1019.7mb 61f 59f
5:00pm 0.7ft 2s 16 18 mph 1019.8mb 61f 59f
4:00pm 0.7ft 2s 18 22 mph 1020mb 61f 59f
3:00pm 0.7ft 2s 18 22 mph 1020.1mb 61f 59f
2:00pm 0.7ft 2s 18 22 mph 1020.3mb 61f 59f
1:00pm 0.7ft 2s 18 22 mph 1020.6mb 61f 59f
12:00pm 0.7ft 2s 18 20 mph 1020.5mb 60f 58f
11:00am 0.7ft 2s 16 18 mph 1020.8mb 61f 58f
10:00am 0.7ft 2s 13 16 mph 1020.7mb 61f 58f
9:00am 0.7ft 2s 18 22 mph 1020.5mb 61f 58f
8:00am 0.7ft 2s 16 20 mph 1020.3mb 61f 58f
7:00am 0.3ft 2s 13 18 mph 1020.1mb 61f 58f
6:00am 0.3ft 2s 13 16 mph 1020mb 61f 58f
5:00am 0.7ft 2s 13 16 mph 1020mb 61f 57f
4:00am 0.3ft 2s 18 20 mph 1020.2mb 61f 57f
3:00am 0.7ft 2s 16 18 mph 1020.4mb 61f 58f
2:00am 0.7ft 2s 16 18 mph 1020.5mb 61f 58f
1:00am 0.3ft 2s 16 20 mph 1020.7mb 61f 58f
12:00am 0.7ft 2s 13 18 mph 1021.2mb 60f 57f
Fri 07/22 11:00pm 0.7ft 2s 13 16 mph 1021.3mb 61f 58f
10:00pm 0.7ft 2s 18 20 mph 1020.9mb 61f 58f
9:00pm 1ft 2s 16 20 mph 1020.8mb 61f 59f
8:00pm 1.3ft 3s 18 22 mph 1020.7mb 61f 59f
7:00pm  -   -  20
mph
1020.6mb - 58f
6:00pm 1ft 3s 20 22 mph 1020.3mb 62f 58f
5:00pm 1ft 2s 20 22 mph 1020.3mb 62f 60f
4:00pm 0.7ft 2s 20 25 mph 1020.4mb 61f 59f